sensor_id;sensor_type;location;lat;lon;timestamp;temperature;humidity
66094;DHT22;52876;49.394;10.892;2023-02-12T00:00:41;4.00;99.90
66094;DHT22;52876;49.394;10.892;2023-02-12T00:05:37;4.00;99.90
66094;DHT22;52876;49.394;10.892;2023-02-12T00:20:17;4.10;99.90
66094;DHT22;52876;49.394;10.892;2023-02-12T00:22:46;4.10;99.90
66094;DHT22;52876;49.394;10.892;2023-02-12T00:30:06;4.10;99.90
66094;DHT22;52876;49.394;10.892;2023-02-12T00:37:49;4.10;99.90
66094;DHT22;52876;49.394;10.892;2023-02-12T00:45:08;4.10;99.90
66094;DHT22;52876;49.394;10.892;2023-02-12T00:54:58;4.10;99.90
66094;DHT22;52876;49.394;10.892;2023-02-12T01:10:18;4.00;99.90
66094;DHT22;52876;49.394;10.892;2023-02-12T01:15:23;4.00;99.90
66094;DHT22;52876;49.394;10.892;2023-02-12T01:17:50;4.10;99.90
66094;DHT22;52876;49.394;10.892;2023-02-12T01:20:17;4.10;99.90
66094;DHT22;52876;49.394;10.892;2023-02-12T01:25:11;4.10;99.90
66094;DHT22;52876;49.394;10.892;2023-02-12T01:27:40;4.00;99.90
66094;DHT22;52876;49.394;10.892;2023-02-12T01:30:08;4.00;99.90
66094;DHT22;52876;49.394;10.892;2023-02-12T01:35:02;3.90;99.90
66094;DHT22;52876;49.394;10.892;2023-02-12T01:45:29;3.90;99.90
66094;DHT22;52876;49.394;10.892;2023-02-12T01:50:29;3.80;99.90
66094;DHT22;52876;49.394;10.892;2023-02-12T01:52:56;3.80;99.90
66094;DHT22;52876;49.394;10.892;2023-02-12T01:55:23;3.80;99.90
66094;DHT22;52876;49.394;10.892;2023-02-12T01:57:49;3.80;99.90
66094;DHT22;52876;49.394;10.892;2023-02-12T02:00:20;3.90;99.90
66094;DHT22;52876;49.394;10.892;2023-02-12T02:02:51;3.70;99.90
66094;DHT22;52876;49.394;10.892;2023-02-12T02:05:23;3.80;99.90
66094;DHT22;52876;49.394;10.892;2023-02-12T02:07:53;3.80;99.90
66094;DHT22;52876;49.394;10.892;2023-02-12T02:10:19;3.80;99.90
66094;DHT22;52876;49.394;10.892;2023-02-12T02:17:49;3.90;99.90
66094;DHT22;52876;49.394;10.892;2023-02-12T02:20:57;3.90;99.90
66094;DHT22;52876;49.394;10.892;2023-02-12T02:23:58;3.90;99.90
66094;DHT22;52876;49.394;10.892;2023-02-12T02:26:54;3.90;99.90
66094;DHT22;52876;49.394;10.892;2023-02-12T02:29:54;3.90;99.90
66094;DHT22;52876;49.394;10.892;2023-02-12T02:32:25;3.90;99.90
66094;DHT22;52876;49.394;10.892;2023-02-12T02:34:57;4.00;99.90
66094;DHT22;52876;49.394;10.892;2023-02-12T02:37:31;3.90;99.90
66094;DHT22;52876;49.394;10.892;2023-02-12T02:39:59;3.90;99.90
66094;DHT22;52876;49.394;10.892;2023-02-12T02:42:35;4.10;99.90
66094;DHT22;52876;49.394;10.892;2023-02-12T02:45:07;4.00;99.90
66094;DHT22;52876;49.394;10.892;2023-02-12T02:47:42;3.90;99.90
66094;DHT22;52876;49.394;10.892;2023-02-12T02:50:12;3.80;99.90
66094;DHT22;52876;49.394;10.892;2023-02-12T02:52:44;3.90;99.90
66094;DHT22;52876;49.394;10.892;2023-02-12T02:55:15;3.90;99.90
66094;DHT22;52876;49.394;10.892;2023-02-12T02:57:48;3.90;99.90
66094;DHT22;52876;49.394;10.892;2023-02-12T03:00:18;4.00;99.90
66094;DHT22;52876;49.394;10.892;2023-02-12T03:02:49;4.00;99.90
66094;DHT22;52876;49.394;10.892;2023-02-12T03:05:19;4.00;99.90
66094;DHT22;52876;49.394;10.892;2023-02-12T03:07:51;4.00;99.90
66094;DHT22;52876;49.394;10.892;2023-02-12T03:10:19;4.00;99.90
66094;DHT22;52876;49.394;10.892;2023-02-12T03:12:51;3.90;99.90
66094;DHT22;52876;49.394;10.892;2023-02-12T03:15:21;4.00;99.90
66094;DHT22;52876;49.394;10.892;2023-02-12T03:17:50;3.90;99.90
66094;DHT22;52876;49.394;10.892;2023-02-12T03:20:21;4.00;99.90
66094;DHT22;52876;49.394;10.892;2023-02-12T03:22:54;4.00;99.90
66094;DHT22;52876;49.394;10.892;2023-02-12T03:25:24;4.20;99.90
66094;DHT22;52876;49.394;10.892;2023-02-12T03:27:57;4.00;99.90
66094;DHT22;52876;49.394;10.892;2023-02-12T03:30:30;3.90;99.90
66094;DHT22;52876;49.394;10.892;2023-02-12T03:33:05;4.50;99.90
66094;DHT22;52876;49.394;10.892;2023-02-12T03:35:39;4.20;99.90
66094;DHT22;52876;49.394;10.892;2023-02-12T03:38:10;4.00;99.90
66094;DHT22;52876;49.394;10.892;2023-02-12T03:40:46;4.00;99.90
66094;DHT22;52876;49.394;10.892;2023-02-12T03:43:21;4.00;99.90
66094;DHT22;52876;49.394;10.892;2023-02-12T03:45:51;4.10;99.90
66094;DHT22;52876;49.394;10.892;2023-02-12T03:48:23;4.00;99.90
66094;DHT22;52876;49.394;10.892;2023-02-12T03:50:53;4.00;99.90
66094;DHT22;52876;49.394;10.892;2023-02-12T03:55:53;4.00;99.90
66094;DHT22;52876;49.394;10.892;2023-02-12T03:58:22;3.90;99.90
66094;DHT22;52876;49.394;10.892;2023-02-12T04:00:51;3.90;99.90
66094;DHT22;52876;49.394;10.892;2023-02-12T04:03:17;4.00;99.90
66094;DHT22;52876;49.394;10.892;2023-02-12T04:05:44;4.00;99.90
66094;DHT22;52876;49.394;10.892;2023-02-12T04:08:11;4.00;99.90
66094;DHT22;52876;49.394;10.892;2023-02-12T04:10:44;3.90;99.90
66094;DHT22;52876;49.394;10.892;2023-02-12T04:13:20;4.00;99.90
66094;DHT22;52876;49.394;10.892;2023-02-12T04:16:01;4.00;99.90
66094;DHT22;52876;49.394;10.892;2023-02-12T04:18:33;3.90;99.90
66094;DHT22;52876;49.394;10.892;2023-02-12T04:21:11;3.80;99.90
66094;DHT22;52876;49.394;10.892;2023-02-12T04:23:43;3.90;99.90
66094;DHT22;52876;49.394;10.892;2023-02-12T04:26:19;3.90;99.90
66094;DHT22;52876;49.394;10.892;2023-02-12T04:28:55;3.90;99.90
66094;DHT22;52876;49.394;10.892;2023-02-12T04:31:28;4.00;99.90
66094;DHT22;52876;49.394;10.892;2023-02-12T04:33:59;4.20;99.90
66094;DHT22;52876;49.394;10.892;2023-02-12T04:36:33;4.00;99.90
66094;DHT22;52876;49.394;10.892;2023-02-12T04:39:02;4.10;99.90
66094;DHT22;52876;49.394;10.892;2023-02-12T04:43:57;4.20;99.90
66094;DHT22;52876;49.394;10.892;2023-02-12T04:48:53;3.90;99.90
66094;DHT22;52876;49.394;10.892;2023-02-12T04:53:47;4.10;99.90
66094;DHT22;52876;49.394;10.892;2023-02-12T04:56:15;4.10;99.90
66094;DHT22;52876;49.394;10.892;2023-02-12T04:58:41;4.10;99.90
66094;DHT22;52876;49.394;10.892;2023-02-12T05:01:08;4.10;99.90
66094;DHT22;52876;49.394;10.892;2023-02-12T05:06:02;4.10;99.90
66094;DHT22;52876;49.394;10.892;2023-02-12T05:08:28;4.10;99.90
66094;DHT22;52876;49.394;10.892;2023-02-12T05:10:57;4.00;99.90
66094;DHT22;52876;49.394;10.892;2023-02-12T05:15:53;4.00;99.90
66094;DHT22;52876;49.394;10.892;2023-02-12T05:20:54;3.90;99.90
66094;DHT22;52876;49.394;10.892;2023-02-12T05:28:16;3.90;99.90
66094;DHT22;52876;49.394;10.892;2023-02-12T05:40:39;3.90;99.90
66094;DHT22;52876;49.394;10.892;2023-02-12T05:45:34;3.80;99.90
66094;DHT22;52876;49.394;10.892;2023-02-12T05:50:28;3.60;99.90
66094;DHT22;52876;49.394;10.892;2023-02-12T05:57:50;3.80;99.90
66094;DHT22;52876;49.394;10.892;2023-02-12T06:00:16;4.00;99.90
66094;DHT22;52876;49.394;10.892;2023-02-12T06:02:45;3.90;99.90
66094;DHT22;52876;49.394;10.892;2023-02-12T06:10:08;3.90;99.90
66094;DHT22;52876;49.394;10.892;2023-02-12T06:19:56;4.00;99.90
66094;DHT22;52876;49.394;10.892;2023-02-12T06:32:07;4.10;99.90
66094;DHT22;52876;49.394;10.892;2023-02-12T06:34:33;3.80;99.90
66094;DHT22;52876;49.394;10.892;2023-02-12T06:37:00;3.70;99.90
66094;DHT22;52876;49.394;10.892;2023-02-12T06:44:18;3.90;99.90
66094;DHT22;52876;49.394;10.892;2023-02-12T06:49:11;3.70;99.90
66094;DHT22;52876;49.394;10.892;2023-02-12T06:54:04;3.80;99.90
66094;DHT22;52876;49.394;10.892;2023-02-12T06:58:58;3.80;99.90
66094;DHT22;52876;49.394;10.892;2023-02-12T07:01:27;3.80;99.90
66094;DHT22;52876;49.394;10.892;2023-02-12T07:03:55;3.90;99.90
66094;DHT22;52876;49.394;10.892;2023-02-12T07:06:22;3.90;99.90
66094;DHT22;52876;49.394;10.892;2023-02-12T07:11:16;3.90;99.90
66094;DHT22;52876;49.394;10.892;2023-02-12T07:13:43;3.90;99.90
66094;DHT22;52876;49.394;10.892;2023-02-12T07:16:13;4.00;99.90
66094;DHT22;52876;49.394;10.892;2023-02-12T07:21:07;4.00;99.90
66094;DHT22;52876;49.394;10.892;2023-02-12T07:26:02;4.00;99.90
66094;DHT22;52876;49.394;10.892;2023-02-12T07:28:29;4.30;99.90
66094;DHT22;52876;49.394;10.892;2023-02-12T07:38:15;4.30;99.90
66094;DHT22;52876;49.394;10.892;2023-02-12T07:40:41;4.40;99.90
66094;DHT22;52876;49.394;10.892;2023-02-12T07:45:36;4.40;99.90
66094;DHT22;52876;49.394;10.892;2023-02-12T08:00:16;4.50;99.90
66094;DHT22;52876;49.394;10.892;2023-02-12T08:02:50;4.60;99.90
66094;DHT22;52876;49.394;10.892;2023-02-12T08:07:46;4.60;99.90
66094;DHT22;52876;49.394;10.892;2023-02-12T08:10:17;4.80;99.90
66094;DHT22;52876;49.394;10.892;2023-02-12T08:15:10;4.80;99.90
66094;DHT22;52876;49.394;10.892;2023-02-12T08:20:06;5.20;99.90
66094;DHT22;52876;49.394;10.892;2023-02-12T08:27:27;5.20;99.90
66094;DHT22;52876;49.394;10.892;2023-02-12T08:37:12;6.20;99.90
66094;DHT22;52876;49.394;10.892;2023-02-12T08:49:26;6.50;99.90
66094;DHT22;52876;49.394;10.892;2023-02-12T08:51:53;6.30;99.90
66094;DHT22;52876;49.394;10.892;2023-02-12T08:54:23;6.10;99.90
66094;DHT22;52876;49.394;10.892;2023-02-12T08:56:54;5.90;99.90
66094;DHT22;52876;49.394;10.892;2023-02-12T09:01:49;5.80;99.90
66094;DHT22;52876;49.394;10.892;2023-02-12T09:04:16;5.70;99.90
66094;DHT22;52876;49.394;10.892;2023-02-12T09:06:45;5.80;99.90
66094;DHT22;52876;49.394;10.892;2023-02-12T09:09:11;5.50;99.90
66094;DHT22;52876;49.394;10.892;2023-02-12T09:11:38;6.00;99.90
66094;DHT22;52876;49.394;10.892;2023-02-12T09:14:07;5.90;99.90
66094;DHT22;52876;49.394;10.892;2023-02-12T09:16:34;6.10;99.90
66094;DHT22;52876;49.394;10.892;2023-02-12T09:19:01;6.00;99.90
66094;DHT22;52876;49.394;10.892;2023-02-12T09:23:55;5.40;99.90
66094;DHT22;52876;49.394;10.892;2023-02-12T09:26:22;5.70;99.90
66094;DHT22;52876;49.394;10.892;2023-02-12T09:28:50;5.80;99.90
66094;DHT22;52876;49.394;10.892;2023-02-12T09:31:18;5.90;99.90
66094;DHT22;52876;49.394;10.892;2023-02-12T09:33:45;6.20;99.90
66094;DHT22;52876;49.394;10.892;2023-02-12T09:36:15;6.10;99.90
66094;DHT22;52876;49.394;10.892;2023-02-12T09:38:41;6.00;99.90
66094;DHT22;52876;49.394;10.892;2023-02-12T09:41:32;6.30;99.90
66094;DHT22;52876;49.394;10.892;2023-02-12T09:44:08;6.40;99.90
66094;DHT22;52876;49.394;10.892;2023-02-12T09:46:44;6.60;99.90
66094;DHT22;52876;49.394;10.892;2023-02-12T09:49:18;6.70;99.90
66094;DHT22;52876;49.394;10.892;2023-02-12T09:51:50;6.70;99.90
66094;DHT22;52876;49.394;10.892;2023-02-12T09:54:19;6.90;99.90
66094;DHT22;52876;49.394;10.892;2023-02-12T09:56:48;7.00;99.90
66094;DHT22;52876;49.394;10.892;2023-02-12T09:59:25;7.20;99.90
66094;DHT22;52876;49.394;10.892;2023-02-12T10:01:56;7.20;99.90
66094;DHT22;52876;49.394;10.892;2023-02-12T10:04:23;7.30;99.90
66094;DHT22;52876;49.394;10.892;2023-02-12T10:07:05;7.40;99.90
66094;DHT22;52876;49.394;10.892;2023-02-12T10:09:48;7.60;99.90
66094;DHT22;52876;49.394;10.892;2023-02-12T10:12:25;7.60;99.90
66094;DHT22;52876;49.394;10.892;2023-02-12T10:15:29;7.40;99.90
66094;DHT22;52876;49.394;10.892;2023-02-12T10:18:05;7.20;99.90
66094;DHT22;52876;49.394;10.892;2023-02-12T10:20:53;7.20;99.90
66094;DHT22;52876;49.394;10.892;2023-02-12T10:26:23;7.10;99.90
66094;DHT22;52876;49.394;10.892;2023-02-12T10:28:52;7.10;99.90
66094;DHT22;52876;49.394;10.892;2023-02-12T10:31:24;7.10;99.90
66094;DHT22;52876;49.394;10.892;2023-02-12T10:36:30;7.20;99.90
66094;DHT22;52876;49.394;10.892;2023-02-12T10:39:00;7.40;99.90
66094;DHT22;52876;49.394;10.892;2023-02-12T10:41:32;5.20;99.90
66094;DHT22;52876;49.394;10.892;2023-02-12T10:46:31;7.20;99.90
66094;DHT22;52876;49.394;10.892;2023-02-12T10:48:59;7.00;99.90
66094;DHT22;52876;49.394;10.892;2023-02-12T10:51:40;6.90;99.90
66094;DHT22;52876;49.394;10.892;2023-02-12T10:59:22;6.90;99.90
66094;DHT22;52876;49.394;10.892;2023-02-12T11:01:51;6.80;99.90
66094;DHT22;52876;49.394;10.892;2023-02-12T11:04:24;7.30;99.90
66094;DHT22;52876;49.394;10.892;2023-02-12T11:06:57;7.40;99.90
66094;DHT22;52876;49.394;10.892;2023-02-12T11:09:27;7.60;99.90
66094;DHT22;52876;49.394;10.892;2023-02-12T11:11:55;8.00;99.90
66094;DHT22;52876;49.394;10.892;2023-02-12T11:16:52;8.00;99.90
66094;DHT22;52876;49.394;10.892;2023-02-12T11:19:20;7.90;99.90
66094;DHT22;52876;49.394;10.892;2023-02-12T11:21:47;7.90;99.90
66094;DHT22;52876;49.394;10.892;2023-02-12T11:24:25;7.70;99.90
66094;DHT22;52876;49.394;10.892;2023-02-12T11:27:10;7.30;99.90
66094;DHT22;52876;49.394;10.892;2023-02-12T11:29:38;7.20;99.90
66094;DHT22;52876;49.394;10.892;2023-02-12T11:32:14;7.20;99.90
66094;DHT22;52876;49.394;10.892;2023-02-12T11:37:14;7.20;99.90
66094;DHT22;52876;49.394;10.892;2023-02-12T11:39:45;7.00;99.90
66094;DHT22;52876;49.394;10.892;2023-02-12T11:42:16;7.00;99.90
66094;DHT22;52876;49.394;10.892;2023-02-12T11:44:47;7.30;99.90
66094;DHT22;52876;49.394;10.892;2023-02-12T11:47:19;7.10;99.90
66094;DHT22;52876;49.394;10.892;2023-02-12T11:49:50;6.70;99.90
66094;DHT22;52876;49.394;10.892;2023-02-12T11:52:19;6.90;99.90
66094;DHT22;52876;49.394;10.892;2023-02-12T11:54:46;6.90;99.90
66094;DHT22;52876;49.394;10.892;2023-02-12T11:57:34;6.80;99.90
66094;DHT22;52876;49.394;10.892;2023-02-12T12:00:02;7.00;99.90
66094;DHT22;52876;49.394;10.892;2023-02-12T12:02:35;7.00;99.90
66094;DHT22;52876;49.394;10.892;2023-02-12T12:05:06;7.00;99.90
66094;DHT22;52876;49.394;10.892;2023-02-12T12:07:36;7.10;99.90
66094;DHT22;52876;49.394;10.892;2023-02-12T12:10:09;7.20;99.90
66094;DHT22;52876;49.394;10.892;2023-02-12T12:12:42;7.30;99.90
66094;DHT22;52876;49.394;10.892;2023-02-12T12:15:16;7.30;99.90
66094;DHT22;52876;49.394;10.892;2023-02-12T12:17:52;7.20;99.90
66094;DHT22;52876;49.394;10.892;2023-02-12T12:20:21;7.20;99.90
66094;DHT22;52876;49.394;10.892;2023-02-12T12:22:52;6.90;99.90
66094;DHT22;52876;49.394;10.892;2023-02-12T12:25:25;7.00;99.90
66094;DHT22;52876;49.394;10.892;2023-02-12T12:27:58;4.70;99.90
66094;DHT22;52876;49.394;10.892;2023-02-12T12:30:37;7.30;99.90
66094;DHT22;52876;49.394;10.892;2023-02-12T12:33:09;7.50;99.90
66094;DHT22;52876;49.394;10.892;2023-02-12T12:35:46;7.70;99.90
66094;DHT22;52876;49.394;10.892;2023-02-12T12:38:22;7.70;99.90
66094;DHT22;52876;49.394;10.892;2023-02-12T12:41:02;8.10;99.90
66094;DHT22;52876;49.394;10.892;2023-02-12T12:43:35;8.00;99.90
66094;DHT22;52876;49.394;10.892;2023-02-12T12:46:34;8.00;99.90
66094;DHT22;52876;49.394;10.892;2023-02-12T12:49:24;7.80;99.90
66094;DHT22;52876;49.394;10.892;2023-02-12T12:52:06;7.90;99.90
66094;DHT22;52876;49.394;10.892;2023-02-12T12:54:47;7.90;99.90
66094;DHT22;52876;49.394;10.892;2023-02-12T12:57:21;8.10;99.90
66094;DHT22;52876;49.394;10.892;2023-02-12T13:00:10;8.10;99.90
66094;DHT22;52876;49.394;10.892;2023-02-12T13:06:10;8.40;99.90
66094;DHT22;52876;49.394;10.892;2023-02-12T13:08:53;8.40;99.90
66094;DHT22;52876;49.394;10.892;2023-02-12T13:11:34;8.00;99.90
66094;DHT22;52876;49.394;10.892;2023-02-12T13:14:21;8.20;99.90
66094;DHT22;52876;49.394;10.892;2023-02-12T13:16:54;8.60;99.90
66094;DHT22;52876;49.394;10.892;2023-02-12T13:19:31;8.60;99.90
66094;DHT22;52876;49.394;10.892;2023-02-12T13:22:07;8.80;99.90
66094;DHT22;52876;49.394;10.892;2023-02-12T13:24:41;8.60;99.90
66094;DHT22;52876;49.394;10.892;2023-02-12T13:27:13;8.50;99.90
66094;DHT22;52876;49.394;10.892;2023-02-12T13:29:42;8.40;99.90
66094;DHT22;52876;49.394;10.892;2023-02-12T13:32:14;8.30;99.90
66094;DHT22;52876;49.394;10.892;2023-02-12T13:34:42;8.20;99.90
66094;DHT22;52876;49.394;10.892;2023-02-12T13:37:15;8.00;99.90
66094;DHT22;52876;49.394;10.892;2023-02-12T13:39:45;8.00;99.90
66094;DHT22;52876;49.394;10.892;2023-02-12T13:42:25;8.10;99.90
66094;DHT22;52876;49.394;10.892;2023-02-12T13:44:57;8.20;99.90
66094;DHT22;52876;49.394;10.892;2023-02-12T13:47:30;8.40;99.90
66094;DHT22;52876;49.394;10.892;2023-02-12T13:50:02;8.60;99.90
66094;DHT22;52876;49.394;10.892;2023-02-12T13:52:39;8.60;99.90
66094;DHT22;52876;49.394;10.892;2023-02-12T13:55:19;8.80;99.90
66094;DHT22;52876;49.394;10.892;2023-02-12T14:01:02;8.70;99.90
66094;DHT22;52876;49.394;10.892;2023-02-12T14:03:30;8.60;99.90
66094;DHT22;52876;49.394;10.892;2023-02-12T14:06:09;8.90;99.90
66094;DHT22;52876;49.394;10.892;2023-02-12T14:08:37;9.00;99.90
66094;DHT22;52876;49.394;10.892;2023-02-12T14:11:07;9.00;99.90
66094;DHT22;52876;49.394;10.892;2023-02-12T14:13:35;8.90;99.90
66094;DHT22;52876;49.394;10.892;2023-02-12T14:16:34;8.70;99.90
66094;DHT22;52876;49.394;10.892;2023-02-12T14:19:51;8.50;99.90
66094;DHT22;52876;49.394;10.892;2023-02-12T14:25:37;8.60;99.90
66094;DHT22;52876;49.394;10.892;2023-02-12T14:28:17;8.70;99.90
66094;DHT22;52876;49.394;10.892;2023-02-12T14:31:27;9.00;99.90
66094;DHT22;52876;49.394;10.892;2023-02-12T14:37:10;9.50;99.90
66094;DHT22;52876;49.394;10.892;2023-02-12T14:47:49;11.00;99.90
66094;DHT22;52876;49.394;10.892;2023-02-12T14:50:18;10.80;99.90
66094;DHT22;52876;49.394;10.892;2023-02-12T14:52:51;10.70;99.90
66094;DHT22;52876;49.394;10.892;2023-02-12T14:55:26;11.30;99.90
66094;DHT22;52876;49.394;10.892;2023-02-12T14:58:00;11.60;99.90
66094;DHT22;52876;49.394;10.892;2023-02-12T15:00:30;11.10;99.90
66094;DHT22;52876;49.394;10.892;2023-02-12T15:03:04;10.70;99.90
66094;DHT22;52876;49.394;10.892;2023-02-12T15:05:37;11.20;99.90
66094;DHT22;52876;49.394;10.892;2023-02-12T15:08:10;11.90;99.90
66094;DHT22;52876;49.394;10.892;2023-02-12T15:10:45;12.10;99.90
66094;DHT22;52876;49.394;10.892;2023-02-12T15:13:18;12.00;99.90
66094;DHT22;52876;49.394;10.892;2023-02-12T15:15:53;12.80;99.90
66094;DHT22;52876;49.394;10.892;2023-02-12T15:18:27;13.70;99.90
66094;DHT22;52876;49.394;10.892;2023-02-12T15:20:59;14.40;99.90
66094;DHT22;52876;49.394;10.892;2023-02-12T15:23:34;14.80;99.90
66094;DHT22;52876;49.394;10.892;2023-02-12T15:28:30;14.50;99.90
66094;DHT22;52876;49.394;10.892;2023-02-12T15:33:39;14.20;99.90
66094;DHT22;52876;49.394;10.892;2023-02-12T15:36:08;14.20;99.90
66094;DHT22;52876;49.394;10.892;2023-02-12T15:38:54;14.10;99.90
66094;DHT22;52876;49.394;10.892;2023-02-12T15:41:27;14.10;99.90
66094;DHT22;52876;49.394;10.892;2023-02-12T15:46:20;13.60;99.90
66094;DHT22;52876;49.394;10.892;2023-02-12T15:48:47;13.40;99.90
66094;DHT22;52876;49.394;10.892;2023-02-12T15:51:17;13.10;99.90
66094;DHT22;52876;49.394;10.892;2023-02-12T15:56:13;12.00;99.90
66094;DHT22;52876;49.394;10.892;2023-02-12T15:58:45;12.20;99.90
66094;DHT22;52876;49.394;10.892;2023-02-12T16:01:16;12.10;99.90
66094;DHT22;52876;49.394;10.892;2023-02-12T16:06:11;11.40;99.90
66094;DHT22;52876;49.394;10.892;2023-02-12T16:08:38;10.90;99.90
66094;DHT22;52876;49.394;10.892;2023-02-12T16:11:05;10.30;99.90
66094;DHT22;52876;49.394;10.892;2023-02-12T16:13:33;9.70;99.90
66094;DHT22;52876;49.394;10.892;2023-02-12T16:16:04;9.10;99.90
66094;DHT22;52876;49.394;10.892;2023-02-12T16:21:04;7.80;99.90
66094;DHT22;52876;49.394;10.892;2023-02-12T16:23:34;7.10;99.90
66094;DHT22;52876;49.394;10.892;2023-02-12T16:28:27;6.30;99.90
66094;DHT22;52876;49.394;10.892;2023-02-12T16:31:06;6.00;99.90
66094;DHT22;52876;49.394;10.892;2023-02-12T16:33:34;6.10;99.90
66094;DHT22;52876;49.394;10.892;2023-02-12T16:36:03;5.40;99.90
66094;DHT22;52876;49.394;10.892;2023-02-12T16:38:40;5.30;99.90
66094;DHT22;52876;49.394;10.892;2023-02-12T16:41:21;5.10;99.90
66094;DHT22;52876;49.394;10.892;2023-02-12T16:43:49;5.00;99.90
66094;DHT22;52876;49.394;10.892;2023-02-12T16:46:17;4.80;99.90
66094;DHT22;52876;49.394;10.892;2023-02-12T16:48:46;4.60;99.90
66094;DHT22;52876;49.394;10.892;2023-02-12T16:51:23;4.40;99.90
66094;DHT22;52876;49.394;10.892;2023-02-12T16:53:51;4.30;99.90
66094;DHT22;52876;49.394;10.892;2023-02-12T16:56:20;4.20;99.90
66094;DHT22;52876;49.394;10.892;2023-02-12T16:58:48;4.10;99.90
66094;DHT22;52876;49.394;10.892;2023-02-12T17:01:17;4.10;99.90
66094;DHT22;52876;49.394;10.892;2023-02-12T17:03:45;4.10;99.90
66094;DHT22;52876;49.394;10.892;2023-02-12T17:06:13;3.90;99.90
66094;DHT22;52876;49.394;10.892;2023-02-12T17:11:09;3.80;99.90
66094;DHT22;52876;49.394;10.892;2023-02-12T17:20:58;4.30;99.90
66094;DHT22;52876;49.394;10.892;2023-02-12T17:23:25;3.40;99.90
66094;DHT22;52876;49.394;10.892;2023-02-12T17:28:19;3.20;99.90
66094;DHT22;52876;49.394;10.892;2023-02-12T17:30:44;3.20;99.90
66094;DHT22;52876;49.394;10.892;2023-02-12T17:35:39;3.10;99.90
66094;DHT22;52876;49.394;10.892;2023-02-12T17:40:34;3.00;99.90
66094;DHT22;52876;49.394;10.892;2023-02-12T17:45:29;2.90;99.90
66094;DHT22;52876;49.394;10.892;2023-02-12T17:55:14;2.90;99.90
66094;DHT22;52876;49.394;10.892;2023-02-12T18:00:10;2.80;99.90
66094;DHT22;52876;49.394;10.892;2023-02-12T18:02:39;2.70;99.90
66094;DHT22;52876;49.394;10.892;2023-02-12T18:05:06;2.70;99.90
66094;DHT22;52876;49.394;10.892;2023-02-12T18:07:35;2.60;99.90
66094;DHT22;52876;49.394;10.892;2023-02-12T18:12:29;2.60;99.90
66094;DHT22;52876;49.394;10.892;2023-02-12T18:14:56;2.60;99.90
66094;DHT22;52876;49.394;10.892;2023-02-12T18:19:51;2.50;99.90
66094;DHT22;52876;49.394;10.892;2023-02-12T18:22:17;2.50;99.90
66094;DHT22;52876;49.394;10.892;2023-02-12T18:24:43;2.60;99.90
66094;DHT22;52876;49.394;10.892;2023-02-12T18:36:55;2.40;99.90
66094;DHT22;52876;49.394;10.892;2023-02-12T18:44:14;2.40;99.90
66094;DHT22;52876;49.394;10.892;2023-02-12T18:49:11;2.50;99.90
66094;DHT22;52876;49.394;10.892;2023-02-12T18:54:11;2.60;99.90
66094;DHT22;52876;49.394;10.892;2023-02-12T18:56:40;2.60;99.90
66094;DHT22;52876;49.394;10.892;2023-02-12T18:59:07;2.60;99.90
66094;DHT22;52876;49.394;10.892;2023-02-12T19:01:34;2.60;99.90
66094;DHT22;52876;49.394;10.892;2023-02-12T19:04:01;2.60;99.90
66094;DHT22;52876;49.394;10.892;2023-02-12T19:06:28;2.60;99.90
66094;DHT22;52876;49.394;10.892;2023-02-12T19:11:24;2.80;99.90
66094;DHT22;52876;49.394;10.892;2023-02-12T19:16:18;2.90;99.90
66094;DHT22;52876;49.394;10.892;2023-02-12T19:18:47;2.90;99.90
66094;DHT22;52876;49.394;10.892;2023-02-12T19:23:41;3.00;99.90
66094;DHT22;52876;49.394;10.892;2023-02-12T19:26:09;3.00;99.90
66094;DHT22;52876;49.394;10.892;2023-02-12T19:28:36;3.10;99.90
66094;DHT22;52876;49.394;10.892;2023-02-12T19:31:10;4.90;99.90
66094;DHT22;52876;49.394;10.892;2023-02-12T19:36:04;3.20;99.90
66094;DHT22;52876;49.394;10.892;2023-02-12T19:41:01;3.40;99.90
66094;DHT22;52876;49.394;10.892;2023-02-12T19:46:00;3.40;99.90
66094;DHT22;52876;49.394;10.892;2023-02-12T20:03:14;3.60;99.90
66094;DHT22;52876;49.394;10.892;2023-02-12T20:20:22;3.80;99.90
66094;DHT22;52876;49.394;10.892;2023-02-12T20:30:12;3.80;99.90
66094;DHT22;52876;49.394;10.892;2023-02-12T20:37:36;3.80;99.90
66094;DHT22;52876;49.394;10.892;2023-02-12T20:49:52;3.50;99.90
66094;DHT22;52876;49.394;10.892;2023-02-12T20:54:45;3.50;99.90
66094;DHT22;52876;49.394;10.892;2023-02-12T20:59:37;3.50;99.90
66094;DHT22;52876;49.394;10.892;2023-02-12T21:02:05;3.20;99.90
66094;DHT22;52876;49.394;10.892;2023-02-12T21:11:51;2.60;99.90
66094;DHT22;52876;49.394;10.892;2023-02-12T21:21:40;2.20;99.90
66094;DHT22;52876;49.394;10.892;2023-02-12T21:24:08;2.10;99.90
66094;DHT22;52876;49.394;10.892;2023-02-12T21:29:04;1.90;99.90
66094;DHT22;52876;49.394;10.892;2023-02-12T21:31:33;1.80;99.90
66094;DHT22;52876;49.394;10.892;2023-02-12T21:34:01;1.80;99.90
66094;DHT22;52876;49.394;10.892;2023-02-12T21:36:29;1.80;99.90
66094;DHT22;52876;49.394;10.892;2023-02-12T21:38:55;1.80;99.90
66094;DHT22;52876;49.394;10.892;2023-02-12T21:41:25;1.70;99.90
66094;DHT22;52876;49.394;10.892;2023-02-12T21:43:55;1.70;99.90
66094;DHT22;52876;49.394;10.892;2023-02-12T21:51:20;1.80;99.90
66094;DHT22;52876;49.394;10.892;2023-02-12T21:53:47;1.90;99.90
66094;DHT22;52876;49.394;10.892;2023-02-12T21:56:15;2.00;99.90
66094;DHT22;52876;49.394;10.892;2023-02-12T21:58:41;2.10;99.90
66094;DHT22;52876;49.394;10.892;2023-02-12T22:01:10;2.10;99.90
66094;DHT22;52876;49.394;10.892;2023-02-12T22:03:37;2.10;99.90
66094;DHT22;52876;49.394;10.892;2023-02-12T22:06:07;2.10;99.90
66094;DHT22;52876;49.394;10.892;2023-02-12T22:08:33;2.10;99.90
66094;DHT22;52876;49.394;10.892;2023-02-12T22:11:00;1.90;99.90
66094;DHT22;52876;49.394;10.892;2023-02-12T22:13:26;2.00;99.90
66094;DHT22;52876;49.394;10.892;2023-02-12T22:20:47;1.60;99.90
66094;DHT22;52876;49.394;10.892;2023-02-12T22:28:05;1.80;99.90
66094;DHT22;52876;49.394;10.892;2023-02-12T22:38:01;2.10;99.90
66094;DHT22;52876;49.394;10.892;2023-02-12T22:55:11;0.90;99.90
66094;DHT22;52876;49.394;10.892;2023-02-12T23:00:05;0.90;99.90
66094;DHT22;52876;49.394;10.892;2023-02-12T23:07:26;-0.30;99.90
66094;DHT22;52876;49.394;10.892;2023-02-12T23:12:19;0.90;99.90
66094;DHT22;52876;49.394;10.892;2023-02-12T23:29:26;1.20;99.90
66094;DHT22;52876;49.394;10.892;2023-02-12T23:36:47;1.10;99.90
66094;DHT22;52876;49.394;10.892;2023-02-12T23:44:08;0.70;99.90
66094;DHT22;52876;49.394;10.892;2023-02-12T23:46:37;0.30;99.90
66094;DHT22;52876;49.394;10.892;2023-02-12T23:51:29;-0.40;99.90
